Terminal Aerodrome Forecast
Issued by NWS Raleigh/Durham, NC

Home | Current Version | Previous Version | Text Only | Print | Product List | Glossary On
Versions: 1 2 3 4 5 6 7 8 9 10 11 12 13 14 15 16 17 18 19 20 21 22 23 24 25 26 27 28 29 30 31 32 33 34 35 36 37 38 39 40 41 42 43 44
000
FTUS42 KRAH 040413 AAA
TAFRDU
TAF AMD
KRDU 040413Z 0404/0424 VRB03KT P6SM VCTS SCT035CB BKN200
      TEMPO 0404/0405 5SM -SHRA SCT007 BKN050 OVC100
     FM040600 24003KT P6SM VCSH BKN050
     FM041200 29005KT P6SM SCT050=

USA.gov is the U.S. government's official web portal to all federal, state and local government web resources and services.